!!! Benutzen Sie für Ihre Flugvorbereitung die offiziellen Quellen !!!

Metar:

EDQM 191250Z 12004KT 090V150 CAVOK M03/M08 Q1015

QNH: 1015
Temperatur: -3
Dew Point : -8

 

METAR (decoded)